Time;durP1;ratioP1;P1;durP2;ratioP2;P2;SDS_P1;SDS_P2;PMS_P1;PMS_P2;Temp;Humidity;BMP_temperature;BMP_pressure;BME280_temperature;BME280_humidity;BME280_pressure;Samples;Min_cycle;Max_cycle;Signal;HPM_P1;HPM_P2
2022/01/09 00:02:12;;;;;;;;;;;5.30;44.50;;;;;;5056392;28;19909;-59
2022/01/09 00:04:38;;;;;;;;;;;5.00;45.10;;;;;;5056247;28;19909;-57
2022/01/09 00:07:03;;;;;;;;;;;4.90;46.10;;;;;;5056086;28;19967;-57
2022/01/09 00:09:29;;;;;;;;;;;4.90;46.10;;;;;;5056255;28;19909;-58
2022/01/09 00:11:54;;;;;;;;;;;4.90;46.20;;;;;;5056539;28;19948;-57
2022/01/09 00:14:20;;;;;;;;;;;4.90;46.30;;;;;;5056141;28;19909;-68
2022/01/09 00:16:45;;;;;;;;;;;4.70;47.60;;;;;;5056236;28;20288;-63
2022/01/09 00:19:11;;;;;;;;;;;4.50;48.90;;;;;;5056131;28;19916;-57
2022/01/09 00:21:37;;;;;;;;;;;4.50;49.10;;;;;;5056297;28;19912;-57
2022/01/09 00:24:02;;;;;;;;;;;4.60;47.80;;;;;;5056066;28;19952;-61
2022/01/09 00:26:28;;;;;;;;;;;4.60;47.70;;;;;;5055761;28;19909;-60
2022/01/09 00:28:53;;;;;;;;;;;4.40;48.50;;;;;;5056265;28;19909;-60
2022/01/09 00:31:19;;;;;;;;;;;4.30;48.00;;;;;;5055945;28;20268;-58
2022/01/09 00:33:45;;;;;;;;;;;4.20;48.40;;;;;;5055756;28;20432;-57
2022/01/09 00:36:10;;;;;;;;;;;4.40;47.00;;;;;;5056151;28;19999;-58
2022/01/09 00:38:36;;;;;;;;;;;4.40;48.10;;;;;;5058849;28;19917;-60
2022/01/09 00:41:01;;;;;;;;;;;4.40;47.90;;;;;;5056641;28;20319;-58
2022/01/09 00:43:27;;;;;;;;;;;4.40;47.80;;;;;;5055604;28;19993;-58
2022/01/09 00:45:52;;;;;;;;;;;4.20;47.80;;;;;;5055442;28;20337;-57
2022/01/09 00:48:18;;;;;;;;;;;4.30;48.00;;;;;;5055516;28;19962;-58
2022/01/09 00:50:44;;;;;;;;;;;4.10;47.70;;;;;;5055493;28;19913;-58
2022/01/09 00:53:09;;;;;;;;;;;4.20;47.90;;;;;;5054812;28;20011;-58
2022/01/09 00:55:35;;;;;;;;;;;4.30;48.10;;;;;;5054648;28;20271;-58
2022/01/09 00:58:00;;;;;;;;;;;4.10;48.50;;;;;;5055276;28;19916;-63
2022/01/09 01:00:26;;;;;;;;;;;4.00;48.50;;;;;;5055449;28;19909;-57
2022/01/09 01:02:51;;;;;;;;;;;3.90;48.90;;;;;;5055188;28;19909;-60
2022/01/09 01:05:17;;;;;;;;;;;3.90;49.10;;;;;;5055181;28;19912;-58
2022/01/09 01:07:43;;;;;;;;;;;3.80;49.30;;;;;;5055368;28;19963;-60
2022/01/09 01:10:08;;;;;;;;;;;4.00;48.90;;;;;;5054935;28;19951;-57
2022/01/09 01:12:34;;;;;;;;;;;4.00;48.70;;;;;;5055156;28;19921;-58
2022/01/09 01:14:59;;;;;;;;;;;4.00;48.20;;;;;;5055083;28;19909;-59
2022/01/09 01:17:25;;;;;;;;;;;4.00;47.80;;;;;;5054850;28;19919;-58
2022/01/09 01:19:53;;;;;;;;;;;4.00;48.20;;;;;;5054920;28;19916;-57
2022/01/09 01:22:18;;;;;;;;;;;4.00;48.70;;;;;;5056275;28;19956;-60
2022/01/09 01:24:46;;;;;;;;;;;4.00;49.00;;;;;;5057299;28;19916;-57
2022/01/09 01:27:11;;;;;;;;;;;4.00;49.90;;;;;;5055971;28;20321;-57
2022/01/09 01:29:38;;;;;;;;;;;3.90;50.30;;;;;;5054600;28;19959;-57
2022/01/09 01:32:04;;;;;;;;;;;3.80;50.30;;;;;;5054669;28;20383;-58
2022/01/09 01:34:29;;;;;;;;;;;3.80;51.00;;;;;;5054532;28;19912;-57
2022/01/09 01:36:55;;;;;;;;;;;3.80;51.30;;;;;;5054656;28;19919;-58
2022/01/09 01:39:20;;;;;;;;;;;3.80;51.00;;;;;;5054433;28;19974;-57
2022/01/09 01:41:46;;;;;;;;;;;3.70;51.70;;;;;;5054567;28;20305;-57
2022/01/09 01:44:12;;;;;;;;;;;3.70;50.70;;;;;;5054595;28;19909;-57
2022/01/09 01:46:39;;;;;;;;;;;3.70;50.90;;;;;;5036411;28;19963;-57
2022/01/09 01:49:04;;;;;;;;;;;3.70;50.30;;;;;;5036501;28;19919;-56
2022/01/09 01:51:30;;;;;;;;;;;3.90;50.30;;;;;;5054664;28;20307;-57
2022/01/09 01:53:57;;;;;;;;;;;3.90;49.90;;;;;;5054325;28;20368;-57
2022/01/09 01:56:23;;;;;;;;;;;4.00;49.30;;;;;;5054422;28;20019;-58
2022/01/09 01:58:49;;;;;;;;;;;4.30;48.00;;;;;;5054319;28;19916;-59
2022/01/09 02:01:15;;;;;;;;;;;4.60;47.00;;;;;;5054069;28;19909;-57
2022/01/09 02:03:40;;;;;;;;;;;4.70;46.40;;;;;;5054024;28;19932;-61
2022/01/09 02:06:06;;;;;;;;;;;4.50;47.10;;;;;;5053807;28;19944;-57
2022/01/09 02:08:32;;;;;;;;;;;4.40;47.90;;;;;;5054180;28;20272;-58
2022/01/09 02:10:57;;;;;;;;;;;4.20;48.70;;;;;;5054349;28;20276;-58
2022/01/09 02:13:23;;;;;;;;;;;4.20;49.00;;;;;;5053801;28;19917;-59
2022/01/09 02:15:49;;;;;;;;;;;4.30;49.30;;;;;;5054039;28;19962;-58
2022/01/09 02:18:18;;;;;;;;;;;4.40;48.90;;;;;;5053689;28;19916;-56
2022/01/09 02:20:44;;;;;;;;;;;4.40;49.30;;;;;;5054113;28;19968;-59
2022/01/09 02:23:11;;;;;;;;;;;4.30;48.90;;;;;;5053665;28;19908;-58
2022/01/09 02:25:37;;;;;;;;;;;4.30;49.40;;;;;;5053593;28;19909;-57
2022/01/09 02:28:03;;;;;;;;;;;4.20;49.00;;;;;;5053907;28;19962;-58
2022/01/09 02:30:32;;;;;;;;;;;4.40;49.00;;;;;;5053541;28;19999;-57
2022/01/09 02:32:59;;;;;;;;;;;4.40;49.10;;;;;;5053648;28;19939;-56
2022/01/09 02:35:25;;;;;;;;;;;4.40;49.00;;;;;;5053809;28;20265;-57
2022/01/09 02:37:50;;;;;;;;;;;4.50;49.40;;;;;;5053325;28;20391;-63
2022/01/09 02:40:16;;;;;;;;;;;4.40;49.70;;;;;;5054787;28;19923;-57
2022/01/09 02:42:41;;;;;;;;;;;4.50;49.30;;;;;;5053735;28;19909;-58
2022/01/09 02:45:07;;;;;;;;;;;4.50;48.80;;;;;;5053352;28;20380;-59
2022/01/09 02:47:34;;;;;;;;;;;4.50;49.10;;;;;;5053486;28;19913;-58
2022/01/09 02:50:12;;;;;;;;;;;4.40;49.40;;;;;;5053481;28;19909;-65
2022/01/09 02:52:49;;;;;;;;;;;4.40;50.20;;;;;;5053091;28;19920;-66
2022/01/09 02:55:15;;;;;;;;;;;4.40;49.40;;;;;;5053316;28;19920;-64
2022/01/09 02:57:42;;;;;;;;;;;4.50;49.50;;;;;;5056717;28;19909;-65
2022/01/09 03:00:09;;;;;;;;;;;4.50;50.00;;;;;;5054519;28;19909;-58
2022/01/09 03:02:34;;;;;;;;;;;4.40;50.30;;;;;;5053363;28;19909;-62
2022/01/09 03:05:00;;;;;;;;;;;4.40;50.70;;;;;;5053320;28;19916;-58
2022/01/09 03:07:25;;;;;;;;;;;4.40;50.70;;;;;;5052936;28;19921;-58
2022/01/09 03:09:51;;;;;;;;;;;4.40;51.10;;;;;;5053250;28;19909;-57
2022/01/09 03:12:17;;;;;;;;;;;4.40;51.40;;;;;;5052761;28;20272;-57
2022/01/09 03:14:42;;;;;;;;;;;4.40;51.00;;;;;;5053294;28;19913;-57
2022/01/09 03:17:08;;;;;;;;;;;4.40;51.10;;;;;;5053768;28;20418;-57
2022/01/09 03:19:34;;;;;;;;;;;4.30;51.30;;;;;;5057165;28;19909;-57
2022/01/09 03:21:59;;;;;;;;;;;4.20;51.40;;;;;;5057554;28;19916;-57
2022/01/09 03:24:25;;;;;;;;;;;4.20;51.90;;;;;;5056993;28;20426;-57
2022/01/09 03:26:50;;;;;;;;;;;4.30;52.00;;;;;;5056939;28;20328;-62
2022/01/09 03:29:16;;;;;;;;;;;4.30;51.90;;;;;;5057470;28;19909;-58
2022/01/09 03:31:41;;;;;;;;;;;4.20;51.60;;;;;;5060305;28;19913;-58
2022/01/09 03:34:07;;;;;;;;;;;4.20;52.00;;;;;;5057070;28;20279;-57
2022/01/09 03:36:32;;;;;;;;;;;4.20;52.60;;;;;;5056990;28;19912;-58
2022/01/09 03:38:58;;;;;;;;;;;4.10;53.30;;;;;;5056663;28;19925;-58
2022/01/09 03:41:24;;;;;;;;;;;4.10;53.10;;;;;;5069089;22;20268;-66
2022/01/09 03:43:49;;;;;;;;;;;4.00;53.30;;;;;;5055858;28;19916;-66
2022/01/09 03:46:15;;;;;;;;;;;4.00;53.30;;;;;;5056958;28;20022;-64
2022/01/09 03:48:40;;;;;;;;;;;4.00;53.10;;;;;;5056855;28;19908;-66
2022/01/09 03:51:06;;;;;;;;;;;4.00;53.30;;;;;;5056776;28;19913;-66
2022/01/09 03:53:32;;;;;;;;;;;3.90;54.60;;;;;;5038498;28;20296;-65
2022/01/09 03:55:57;;;;;;;;;;;3.80;54.90;;;;;;5056530;28;20007;-65
2022/01/09 03:58:23;;;;;;;;;;;3.70;55.00;;;;;;5056805;28;19916;-65
2022/01/09 04:00:49;;;;;;;;;;;3.70;56.00;;;;;;5056599;28;20329;-65
2022/01/09 04:03:14;;;;;;;;;;;3.70;55.40;;;;;;5056130;28;19908;-66
2022/01/09 04:05:40;;;;;;;;;;;3.70;55.00;;;;;;5056307;28;19969;-65
2022/01/09 04:08:05;;;;;;;;;;;3.70;54.80;;;;;;5056452;28;19909;-64
2022/01/09 04:10:33;;;;;;;;;;;3.80;53.00;;;;;;5056160;28;19909;-65
2022/01/09 04:13:00;;;;;;;;;;;3.90;52.90;;;;;;5056144;28;19917;-64
2022/01/09 04:15:26;;;;;;;;;;;3.90;53.50;;;;;;5056312;28;20378;-64
2022/01/09 04:17:54;;;;;;;;;;;3.90;52.60;;;;;;5038329;28;19909;-65
2022/01/09 04:20:21;;;;;;;;;;;4.10;51.50;;;;;;5056179;28;19908;-64
2022/01/09 04:22:47;;;;;;;;;;;4.20;50.90;;;;;;5056112;28;20360;-65
2022/01/09 04:25:13;;;;;;;;;;;4.30;50.30;;;;;;5055903;28;20347;-66
2022/01/09 04:27:38;;;;;;;;;;;4.50;49.30;;;;;;5055834;28;20364;-65
2022/01/09 04:30:04;;;;;;;;;;;4.40;49.60;;;;;;5055732;28;19919;-64
2022/01/09 04:32:30;;;;;;;;;;;4.50;48.70;;;;;;5055741;28;19916;-65
2022/01/09 04:34:56;;;;;;;;;;;4.50;48.60;;;;;;5056023;28;19913;-65
2022/01/09 04:37:22;;;;;;;;;;;4.50;49.00;;;;;;5055771;28;19916;-67
2022/01/09 04:39:49;;;;;;;;;;;4.40;49.10;;;;;;5055534;28;19908;-67
2022/01/09 04:42:15;;;;;;;;;;;4.30;49.90;;;;;;5055882;28;19921;-67
2022/01/09 04:44:41;;;;;;;;;;;4.20;50.90;;;;;;5055764;28;19909;-64
2022/01/09 04:47:12;;;;;;;;;;;4.00;51.60;;;;;;5055302;28;20360;-66
2022/01/09 04:49:40;;;;;;;;;;;4.10;51.00;;;;;;5055232;28;20377;-66
2022/01/09 04:52:09;;;;;;;;;;;4.10;52.30;;;;;;5055206;28;19909;-65
2022/01/09 04:54:34;;;;;;;;;;;3.90;53.30;;;;;;5055230;28;20348;-65
2022/01/09 04:57:02;;;;;;;;;;;3.70;53.90;;;;;;5055262;28;19966;-65
2022/01/09 04:59:30;;;;;;;;;;;3.60;55.90;;;;;;5055416;28;19909;-68
2022/01/09 05:01:56;;;;;;;;;;;3.50;55.60;;;;;;5055303;28;19908;-66
2022/01/09 05:04:21;;;;;;;;;;;3.50;54.80;;;;;;5055060;28;20008;-66
2022/01/09 05:06:47;;;;;;;;;;;3.70;52.60;;;;;;5054932;28;19913;-67
2022/01/09 05:09:13;;;;;;;;;;;3.80;51.50;;;;;;5055046;28;19912;-66
2022/01/09 05:11:38;;;;;;;;;;;4.00;50.70;;;;;;5055065;28;19974;-65
2022/01/09 05:14:04;;;;;;;;;;;4.10;49.60;;;;;;5054965;28;20019;-66
2022/01/09 05:16:30;;;;;;;;;;;4.20;49.00;;;;;;5054933;28;19909;-65
2022/01/09 05:19:03;;;;;;;;;;;4.30;48.80;;;;;;5054991;28;19908;-64
2022/01/09 05:21:28;;;;;;;;;;;4.30;48.70;;;;;;5054549;28;19909;-65
2022/01/09 05:23:54;;;;;;;;;;;4.10;49.10;;;;;;5054778;28;20008;-63
2022/01/09 05:26:19;;;;;;;;;;;4.10;49.60;;;;;;5055034;28;20347;-64
2022/01/09 05:28:45;;;;;;;;;;;4.10;49.60;;;;;;5054899;28;19913;-64
2022/01/09 05:31:11;;;;;;;;;;;4.10;49.80;;;;;;5054928;28;20364;-64
2022/01/09 05:33:36;;;;;;;;;;;4.20;50.00;;;;;;5054422;28;20284;-64
2022/01/09 05:36:02;;;;;;;;;;;4.20;50.20;;;;;;5054922;28;19908;-64
2022/01/09 05:38:28;;;;;;;;;;;4.30;50.20;;;;;;5054661;28;19956;-65
2022/01/09 05:40:53;;;;;;;;;;;4.30;50.00;;;;;;5054029;28;19908;-64
2022/01/09 05:43:19;;;;;;;;;;;4.40;48.80;;;;;;5054220;28;20365;-64
2022/01/09 05:45:45;;;;;;;;;;;4.50;48.20;;;;;;5054455;28;20003;-64
2022/01/09 05:48:10;;;;;;;;;;;4.40;48.10;;;;;;5054415;28;19957;-64
2022/01/09 05:50:36;;;;;;;;;;;4.50;48.10;;;;;;5054326;28;20346;-65
2022/01/09 05:53:01;;;;;;;;;;;4.60;48.20;;;;;;5054181;28;19920;-64
2022/01/09 05:55:27;;;;;;;;;;;4.70;47.90;;;;;;5054480;28;19908;-66
2022/01/09 05:57:52;;;;;;;;;;;4.60;48.10;;;;;;5054412;28;19909;-64
2022/01/09 06:00:18;;;;;;;;;;;4.40;49.40;;;;;;5053968;28;20358;-65
2022/01/09 06:02:43;;;;;;;;;;;4.40;49.70;;;;;;5054240;28;20279;-65
2022/01/09 06:05:09;;;;;;;;;;;4.30;50.90;;;;;;5054035;28;20327;-64
2022/01/09 06:07:39;;;;;;;;;;;4.30;51.40;;;;;;5054212;28;20345;-64
2022/01/09 06:10:04;;;;;;;;;;;4.10;53.20;;;;;;5053993;28;20276;-64
2022/01/09 06:12:30;;;;;;;;;;;4.20;53.10;;;;;;5053957;28;19917;-65
2022/01/09 06:14:55;;;;;;;;;;;4.40;51.50;;;;;;5054109;28;20394;-64
2022/01/09 06:17:21;;;;;;;;;;;4.40;50.40;;;;;;5053794;28;19909;-66
2022/01/09 06:19:46;;;;;;;;;;;4.50;49.80;;;;;;5053879;28;19936;-66
2022/01/09 06:22:17;;;;;;;;;;;4.50;49.60;;;;;;5053972;28;20352;-65
2022/01/09 06:24:44;;;;;;;;;;;4.50;49.50;;;;;;5053632;28;19986;-64
2022/01/09 06:27:09;;;;;;;;;;;4.50;49.00;;;;;;5053599;28;19916;-64
2022/01/09 06:29:35;;;;;;;;;;;4.50;49.50;;;;;;5053416;28;19909;-65
2022/01/09 06:32:00;;;;;;;;;;;4.50;49.50;;;;;;5053671;28;19953;-65
2022/01/09 06:34:26;;;;;;;;;;;4.70;48.40;;;;;;5053386;28;19917;-64
2022/01/09 06:36:51;;;;;;;;;;;4.80;47.50;;;;;;5035355;28;19938;-64
2022/01/09 06:39:17;;;;;;;;;;;5.00;46.70;;;;;;5053432;28;19909;-65
2022/01/09 06:41:42;;;;;;;;;;;5.00;46.20;;;;;;5053315;28;19921;-65
2022/01/09 06:44:08;;;;;;;;;;;5.00;47.30;;;;;;5053258;28;20024;-66
2022/01/09 06:46:33;;;;;;;;;;;5.00;48.90;;;;;;5053131;28;20369;-65
2022/01/09 06:48:59;;;;;;;;;;;5.00;48.00;;;;;;5053181;28;19917;-64
2022/01/09 06:51:25;;;;;;;;;;;5.10;46.00;;;;;;5053052;28;19909;-68
2022/01/09 06:53:50;;;;;;;;;;;5.10;46.10;;;;;;5052868;28;20423;-66
2022/01/09 06:56:16;;;;;;;;;;;5.00;47.20;;;;;;5053106;28;19932;-64
2022/01/09 06:58:41;;;;;;;;;;;5.00;48.00;;;;;;5053174;28;19962;-66
2022/01/09 07:01:07;;;;;;;;;;;5.00;47.90;;;;;;5053113;28;19923;-66
2022/01/09 07:03:33;;;;;;;;;;;4.90;47.60;;;;;;5052912;28;19913;-65
2022/01/09 07:05:58;;;;;;;;;;;5.00;47.90;;;;;;5035378;28;19916;-66
2022/01/09 07:08:24;;;;;;;;;;;5.00;47.90;;;;;;5057362;28;20008;-65
2022/01/09 07:10:49;;;;;;;;;;;5.20;47.00;;;;;;5042844;28;19916;-65
2022/01/09 07:13:15;;;;;;;;;;;4.90;48.90;;;;;;5054549;28;19958;-65
2022/01/09 07:15:41;;;;;;;;;;;4.90;50.30;;;;;;5053446;28;19954;-66
2022/01/09 07:18:07;;;;;;;;;;;4.90;50.30;;;;;;5053098;28;19908;-65
2022/01/09 07:20:32;;;;;;;;;;;4.90;50.00;;;;;;5052946;28;19963;-75
2022/01/09 07:22:58;;;;;;;;;;;4.90;52.20;;;;;;5053068;28;19909;-68
2022/01/09 07:25:23;;;;;;;;;;;5.00;52.50;;;;;;5052967;28;19908;-74
2022/01/09 07:27:49;;;;;;;;;;;5.00;52.70;;;;;;5053293;28;20430;-67
2022/01/09 07:30:14;;;;;;;;;;;5.00;52.60;;;;;;5053053;28;20422;-66
2022/01/09 07:32:40;;;;;;;;;;;5.30;52.00;;;;;;5052587;28;19928;-69
2022/01/09 07:35:06;;;;;;;;;;;5.40;51.20;;;;;;5052761;28;19960;-68
2022/01/09 07:37:32;;;;;;;;;;;5.70;51.80;;;;;;5052811;28;19955;-69
2022/01/09 07:39:58;;;;;;;;;;;5.70;50.40;;;;;;5052540;28;20366;-67
2022/01/09 07:42:23;;;;;;;;;;;5.50;49.90;;;;;;5052746;28;20372;-66
2022/01/09 07:44:49;;;;;;;;;;;5.40;50.10;;;;;;5052593;28;20016;-68
2022/01/09 07:47:14;;;;;;;;;;;5.50;50.30;;;;;;5052536;28;19996;-66
2022/01/09 07:49:40;;;;;;;;;;;5.40;50.70;;;;;;5052421;28;19909;-66
2022/01/09 07:52:06;;;;;;;;;;;5.40;50.50;;;;;;5052582;28;19913;-64
2022/01/09 07:54:31;;;;;;;;;;;5.30;51.50;;;;;;5052433;28;20379;-66
2022/01/09 07:56:57;;;;;;;;;;;5.30;52.60;;;;;;5052497;28;20281;-65
2022/01/09 07:59:22;;;;;;;;;;;5.20;53.10;;;;;;5052473;28;20386;-67
2022/01/09 08:01:49;;;;;;;;;;;5.10;52.60;;;;;;5052478;28;19909;-68
2022/01/09 08:04:14;;;;;;;;;;;4.90;53.60;;;;;;5054717;28;19995;-69
2022/01/09 08:06:40;;;;;;;;;;;5.00;54.10;;;;;;5056150;28;19998;-68
2022/01/09 08:09:06;;;;;;;;;;;5.10;54.70;;;;;;5056237;28;19954;-67
2022/01/09 08:11:31;;;;;;;;;;;5.20;54.30;;;;;;5055450;28;19908;-65
2022/01/09 08:13:57;;;;;;;;;;;5.20;53.20;;;;;;5055872;28;20008;-66
2022/01/09 08:16:22;;;;;;;;;;;5.30;52.50;;;;;;5055611;28;20331;-65
2022/01/09 08:18:48;;;;;;;;;;;5.40;52.20;;;;;;5056050;28;20391;-67
2022/01/09 08:21:19;;;;;;;;;;;5.40;53.90;;;;;;5055859;28;19989;-64
2022/01/09 08:23:48;;;;;;;;;;;5.30;54.90;;;;;;5055633;28;20334;-63
2022/01/09 08:26:15;;;;;;;;;;;5.30;54.50;;;;;;5055825;28;19952;-64
2022/01/09 08:28:44;;;;;;;;;;;5.30;55.70;;;;;;5055904;28;19971;-64
2022/01/09 08:31:10;;;;;;;;;;;5.30;56.10;;;;;;5055920;28;20406;-63
2022/01/09 08:33:36;;;;;;;;;;;5.30;56.30;;;;;;5055966;28;19917;-63
2022/01/09 08:36:02;;;;;;;;;;;5.30;54.50;;;;;;5055719;28;19913;-63
2022/01/09 08:38:27;;;;;;;;;;;5.40;55.10;;;;;;5055663;28;20276;-64
2022/01/09 08:40:53;;;;;;;;;;;5.40;56.80;;;;;;5055763;28;20360;-64
2022/01/09 08:43:19;;;;;;;;;;;5.40;53.40;;;;;;5055294;28;19932;-64
2022/01/09 08:45:44;;;;;;;;;;;5.40;54.00;;;;;;5055431;28;19919;-64
2022/01/09 08:48:10;;;;;;;;;;;5.60;52.20;;;;;;5055584;28;20357;-63
2022/01/09 08:50:35;;;;;;;;;;;5.70;50.40;;;;;;5055442;28;19912;-65
2022/01/09 08:53:01;;;;;;;;;;;5.70;51.50;;;;;;5055231;28;19924;-64
2022/01/09 08:55:27;;;;;;;;;;;5.70;50.60;;;;;;5055550;28;19908;-66
2022/01/09 08:57:52;;;;;;;;;;;5.80;51.30;;;;;;5055462;28;19916;-65
2022/01/09 09:00:18;;;;;;;;;;;5.70;52.80;;;;;;5054932;28;19970;-63
2022/01/09 09:02:44;;;;;;;;;;;5.80;51.40;;;;;;5055357;28;19946;-64
2022/01/09 09:05:10;;;;;;;;;;;5.90;49.80;;;;;;5055451;28;19909;-65
2022/01/09 09:07:35;;;;;;;;;;;6.00;51.10;;;;;;5055189;28;20277;-64
2022/01/09 09:10:04;;;;;;;;;;;6.00;50.90;;;;;;5055194;28;20360;-62
2022/01/09 09:12:31;;;;;;;;;;;6.00;50.10;;;;;;5055017;28;20016;-67
2022/01/09 09:14:58;;;;;;;;;;;6.30;49.00;;;;;;5054133;28;19916;-66
2022/01/09 09:17:24;;;;;;;;;;;6.30;48.10;;;;;;5055196;28;19909;-61
2022/01/09 09:19:49;;;;;;;;;;;6.40;47.80;;;;;;5070277;28;20069;-63
2022/01/09 09:22:15;;;;;;;;;;;6.40;47.40;;;;;;5074724;28;19974;-62
2022/01/09 09:24:40;;;;;;;;;;;6.20;50.00;;;;;;5074699;28;19912;-62
2022/01/09 09:27:06;;;;;;;;;;;6.20;49.30;;;;;;5074757;28;20003;-62
2022/01/09 09:29:32;;;;;;;;;;;6.20;51.80;;;;;;5074632;28;19908;-65
2022/01/09 09:31:58;;;;;;;;;;;6.20;53.70;;;;;;5074544;28;19963;-71
2022/01/09 09:34:23;;;;;;;;;;;6.20;53.30;;;;;;5065367;28;19916;-64
2022/01/09 09:36:50;;;;;;;;;;;6.20;53.00;;;;;;5073800;28;19916;-62
2022/01/09 09:39:15;;;;;;;;;;;6.10;53.70;;;;;;5073373;28;19916;-64
2022/01/09 09:41:41;;;;;;;;;;;6.20;53.50;;;;;;5073658;28;20283;-64
2022/01/09 09:44:09;;;;;;;;;;;6.20;52.60;;;;;;5073493;28;19958;-61
2022/01/09 09:46:35;;;;;;;;;;;6.30;52.00;;;;;;5073727;28;20352;-65
2022/01/09 09:49:01;;;;;;;;;;;6.30;50.90;;;;;;5073532;28;19915;-66
2022/01/09 09:51:28;;;;;;;;;;;6.30;53.40;;;;;;5074197;28;19908;-62
2022/01/09 09:53:55;;;;;;;;;;;6.30;54.10;;;;;;5056755;28;19917;-65
2022/01/09 09:56:21;;;;;;;;;;;6.40;52.00;;;;;;5074026;28;20463;-67
2022/01/09 09:58:49;;;;;;;;;;;6.60;49.80;;;;;;5071599;28;19909;-65
2022/01/09 10:01:22;;;;;;;;;;;6.60;47.80;;;;;;5035324;28;19909;-64
2022/01/09 10:03:52;;;;;;;;;;;6.70;47.60;;;;;;5035392;28;19909;-66
2022/01/09 10:06:34;;;;;;;;;;;6.60;49.90;;;;;;5053208;28;19916;-68
2022/01/09 10:09:04;;;;;;;;;;;6.60;52.10;;;;;;5035436;28;19913;-68
2022/01/09 10:11:40;;;;;;;;;;;6.70;54.30;;;;;;5053743;28;19909;-66
2022/01/09 10:14:11;;;;;;;;;;;6.60;54.50;;;;;;5053759;28;19921;-67
2022/01/09 10:16:37;;;;;;;;;;;6.40;52.90;;;;;;5053858;28;20000;-67
2022/01/09 10:19:02;;;;;;;;;;;6.50;53.60;;;;;;5053798;28;20005;-64
2022/01/09 10:21:28;;;;;;;;;;;6.50;53.80;;;;;;5053480;28;19916;-63
2022/01/09 10:24:04;;;;;;;;;;;6.50;53.60;;;;;;5053550;28;20012;-64
2022/01/09 10:26:30;;;;;;;;;;;6.70;52.40;;;;;;5053504;28;19913;-65
2022/01/09 10:28:56;;;;;;;;;;;6.90;51.10;;;;;;5053534;28;20387;-66
2022/01/09 10:31:21;;;;;;;;;;;6.90;51.40;;;;;;5053492;28;19978;-64
2022/01/09 10:33:56;;;;;;;;;;;7.00;49.10;;;;;;5053391;28;20369;-65
2022/01/09 10:36:39;;;;;;;;;;;7.20;47.10;;;;;;5053288;28;19913;-62
2022/01/09 10:39:13;;;;;;;;;;;7.20;45.70;;;;;;5053124;28;19922;-66
2022/01/09 10:41:48;;;;;;;;;;;7.20;47.20;;;;;;5052600;28;19959;-65
2022/01/09 10:44:18;;;;;;;;;;;7.20;49.00;;;;;;5052333;28;19925;-63
2022/01/09 10:46:58;;;;;;;;;;;7.20;50.00;;;;;;5052559;28;19916;-61
2022/01/09 10:49:34;;;;;;;;;;;7.10;51.10;;;;;;5055427;28;19935;-62
2022/01/09 10:52:13;;;;;;;;;;;7.10;51.60;;;;;;5053292;28;19913;-63
2022/01/09 10:54:41;;;;;;;;;;;7.10;51.90;;;;;;5053116;28;19943;-61
2022/01/09 10:57:13;;;;;;;;;;;7.10;51.90;;;;;;5053136;28;20372;-62
2022/01/09 10:59:39;;;;;;;;;;;7.10;52.70;;;;;;5052944;28;20335;-62
2022/01/09 11:02:05;;;;;;;;;;;7.10;52.60;;;;;;5052818;28;20016;-63
2022/01/09 11:04:31;;;;;;;;;;;7.10;52.10;;;;;;5051998;28;19909;-63
2022/01/09 11:06:58;;;;;;;;;;;7.20;51.80;;;;;;5052806;28;19909;-62
2022/01/09 11:09:26;;;;;;;;;;;7.30;51.40;;;;;;5052108;28;19990;-62
2022/01/09 11:11:52;;;;;;;;;;;7.40;49.20;;;;;;5052807;28;19938;-63
2022/01/09 11:14:20;;;;;;;;;;;7.50;47.00;;;;;;5052659;28;19993;-65
2022/01/09 11:16:51;;;;;;;;;;;7.60;46.80;;;;;;5052389;28;19924;-63
2022/01/09 11:19:18;;;;;;;;;;;7.60;46.50;;;;;;5051282;28;19916;-64
2022/01/09 11:21:45;;;;;;;;;;;7.60;45.00;;;;;;5072989;28;20304;-63
2022/01/09 11:24:18;;;;;;;;;;;7.60;43.80;;;;;;5072855;28;19984;-64
2022/01/09 11:26:52;;;;;;;;;;;7.70;42.70;;;;;;5072719;28;19935;-63
2022/01/09 11:29:38;;;;;;;;;;;7.70;42.20;;;;;;5073248;28;19995;-66
2022/01/09 11:32:07;;;;;;;;;;;7.70;41.50;;;;;;5005448;28;20300;-65
2022/01/09 11:34:52;;;;;;;;;;;7.70;43.00;;;;;;5072712;28;19916;-67
2022/01/09 11:37:45;;;;;;;;;;;7.60;41.80;;;;;;5072604;28;19956;-67
2022/01/09 11:40:31;;;;;;;;;;;7.70;41.60;;;;;;5077001;28;20670;-67
2022/01/09 11:43:04;;;;;;;;;;;7.70;41.00;;;;;;5058297;28;19975;-62
2022/01/09 11:45:41;;;;;;;;;;;7.60;41.70;;;;;;5077008;28;19912;-69
2022/01/09 11:48:07;;;;;;;;;;;7.60;42.50;;;;;;5076806;28;19915;-67
2022/01/09 11:50:42;;;;;;;;;;;7.60;40.10;;;;;;5076841;28;20291;-63
2022/01/09 11:53:07;;;;;;;;;;;7.70;40.00;;;;;;5076478;28;19917;-69
2022/01/09 11:55:34;;;;;;;;;;;7.80;39.70;;;;;;5076893;28;19919;-66
2022/01/09 11:58:02;;;;;;;;;;;7.90;39.10;;;;;;5077225;28;19913;-68
2022/01/09 12:00:32;;;;;;;;;;;8.00;38.80;;;;;;5058774;28;20364;-66
2022/01/09 12:02:58;;;;;;;;;;;8.00;38.90;;;;;;5066705;28;19913;-69
2022/01/09 12:05:24;;;;;;;;;;;8.10;39.40;;;;;;5059962;28;19970;-69
2022/01/09 12:07:53;;;;;;;;;;;8.10;40.10;;;;;;5076271;28;19908;-65
2022/01/09 12:10:22;;;;;;;;;;;8.10;39.30;;;;;;5064693;28;19920;-69
2022/01/09 12:12:48;;;;;;;;;;;8.20;38.80;;;;;;5058067;28;19939;-76
2022/01/09 12:15:15;;;;;;;;;;;8.20;39.00;;;;;;5082625;28;19938;-72
2022/01/09 12:17:42;;;;;;;;;;;8.30;39.20;;;;;;5071744;28;19932;-70
2022/01/09 12:20:14;;;;;;;;;;;8.30;38.90;;;;;;5070232;28;19908;-70
2022/01/09 12:22:47;;;;;;;;;;;8.30;39.30;;;;;;5044664;28;19915;-71
2022/01/09 12:25:25;;;;;;;;;;;8.30;40.00;;;;;;5058801;28;20063;-74
2022/01/09 12:28:11;;;;;;;;;;;8.20;40.40;;;;;;5057898;28;19965;-69
2022/01/09 12:30:40;;;;;;;;;;;8.30;40.00;;;;;;5038917;28;19909;-68
2022/01/09 12:33:10;;;;;;;;;;;8.20;41.00;;;;;;5055912;28;20016;-69
2022/01/09 12:35:39;;;;;;;;;;;8.20;41.60;;;;;;5056403;28;19998;-71
2022/01/09 12:38:05;;;;;;;;;;;8.20;42.90;;;;;;5056095;28;19966;-71
2022/01/09 12:40:32;;;;;;;;;;;8.10;43.80;;;;;;5056031;28;20293;-65
2022/01/09 12:42:59;;;;;;;;;;;8.10;45.90;;;;;;5056035;28;19931;-70
2022/01/09 12:45:27;;;;;;;;;;;8.10;46.30;;;;;;5057626;28;19995;-65
2022/01/09 12:47:53;;;;;;;;;;;8.10;46.90;;;;;;5072283;28;19908;-68
2022/01/09 12:50:27;;;;;;;;;;;8.10;47.30;;;;;;5072752;28;20070;-64
2022/01/09 12:53:11;;;;;;;;;;;8.00;48.10;;;;;;5072949;28;19917;-72
2022/01/09 12:55:53;;;;;;;;;;;7.90;49.80;;;;;;5073475;28;19967;-70
2022/01/09 12:58:23;;;;;;;;;;;7.90;50.00;;;;;;5072645;28;19915;-67
2022/01/09 13:00:49;;;;;;;;;;;8.10;50.00;;;;;;5061105;28;20360;-69
2022/01/09 13:03:18;;;;;;;;;;;8.10;50.40;;;;;;5038692;28;19955;-74
2022/01/09 13:05:51;;;;;;;;;;;8.10;50.70;;;;;;5041609;28;19913;-62
2022/01/09 13:08:17;;;;;;;;;;;8.10;50.90;;;;;;5035067;28;19909;-67
2022/01/09 13:10:43;;;;;;;;;;;8.00;51.90;;;;;;5035294;28;20395;-68
2022/01/09 13:13:10;;;;;;;;;;;7.80;51.90;;;;;;5035195;28;19921;-67
2022/01/09 13:15:37;;;;;;;;;;;7.60;53.80;;;;;;5034981;28;19916;-63
2022/01/09 13:18:03;;;;;;;;;;;7.60;55.30;;;;;;5034870;28;19910;-65
2022/01/09 13:20:29;;;;;;;;;;;7.40;57.00;;;;;;5035046;28;19909;-66
2022/01/09 13:23:04;;;;;;;;;;;6.90;59.00;;;;;;5034022;28;20014;-65
2022/01/09 13:25:40;;;;;;;;;;;6.80;60.00;;;;;;5035115;28;20391;-69
2022/01/09 13:28:05;;;;;;;;;;;6.90;60.20;;;;;;5035015;28;19917;-68
2022/01/09 13:30:31;;;;;;;;;;;7.00;60.80;;;;;;5049206;28;20563;-61
2022/01/09 13:33:01;;;;;;;;;;;6.80;61.70;;;;;;5054284;28;20052;-67
2022/01/09 13:35:27;;;;;;;;;;;6.70;63.90;;;;;;5057194;28;19913;-65
2022/01/09 13:37:56;;;;;;;;;;;6.80;63.50;;;;;;5068285;28;19923;-68
2022/01/09 13:40:22;;;;;;;;;;;6.90;64.90;;;;;;5064385;28;19912;-66
2022/01/09 13:42:48;;;;;;;;;;;6.90;66.10;;;;;;5065266;28;19946;-68
2022/01/09 13:45:17;;;;;;;;;;;7.00;65.00;;;;;;5073262;28;20287;-66
2022/01/09 13:47:46;;;;;;;;;;;7.00;65.50;;;;;;5051384;28;19912;-64
2022/01/09 13:50:13;;;;;;;;;;;7.00;65.60;;;;;;5067292;28;19916;-64
2022/01/09 13:52:40;;;;;;;;;;;7.00;66.20;;;;;;5068050;28;19915;-67
2022/01/09 13:55:06;;;;;;;;;;;7.00;66.10;;;;;;5070615;28;19913;-66
2022/01/09 13:57:45;;;;;;;;;;;7.00;65.00;;;;;;5055240;28;19927;-64
2022/01/09 14:00:11;;;;;;;;;;;6.80;66.10;;;;;;5070526;28;19962;-69
2022/01/09 14:02:38;;;;;;;;;;;6.80;65.70;;;;;;5069781;28;19912;-65
2022/01/09 14:05:18;;;;;;;;;;;6.80;66.40;;;;;;5055788;28;19909;-70
2022/01/09 14:08:04;;;;;;;;;;;6.70;67.20;;;;;;5054082;28;19912;-66
2022/01/09 14:10:37;;;;;;;;;;;6.70;67.00;;;;;;5035461;28;19966;-65
2022/01/09 14:13:10;;;;;;;;;;;6.90;65.60;;;;;;5057081;28;19923;-64
2022/01/09 14:15:35;;;;;;;;;;;7.10;64.50;;;;;;5056677;28;19919;-68
2022/01/09 14:18:01;;;;;;;;;;;7.30;63.00;;;;;;5037350;28;19909;-69
2022/01/09 14:20:27;;;;;;;;;;;7.30;60.60;;;;;;5058146;28;19916;-69
2022/01/09 14:22:54;;;;;;;;;;;7.30;60.50;;;;;;5060296;28;19909;-72
2022/01/09 14:25:23;;;;;;;;;;;7.10;59.30;;;;;;5063966;28;19912;-68
2022/01/09 14:27:49;;;;;;;;;;;6.90;59.70;;;;;;5068313;28;20382;-67
2022/01/09 14:30:19;;;;;;;;;;;6.60;60.80;;;;;;5050769;28;19909;-69
2022/01/09 14:32:45;;;;;;;;;;;6.20;62.40;;;;;;5073142;28;19916;-71